Archival Weather

Republic

Farmingdale, New York (KFRG)

Report from: Tuesday, January 30, 2024 8:53 PM EST
Current time: Friday, June 21, 2024 4:22 AM EDT

Current weather – Weather history – Daily summaries
Weather forecast

Temperature1.7°C (35.1°F)
Wind chill-2.6°C (27.4°F)
Dew point-2.8°C (27.0°F)
Winds 9 kts (4.6 m/s, 10.4 mph) East-Southeast (120°)
Visibility10 mi. (16.1 km)
Clouds Ceiling: Overcast 2,400 ft. (732 m)
Altimeter30.21 in.Hg (1023 mB)
Relative humidity72 %
Density altitude-1,870 ft. (-570 m)
Sea-level pressure102.3 kPa (1023 mB, 30.21 in.Hg)
Remarks Automated weather observing station without precipitation discriminator
Flight conditions Marginal Visual Meteorological Conditions
Raw dataKFRG 310153Z 12009KT 10SM OVC024 02/M03 A3021 RMK AO1 SLP229 T00171028
An error has occurred. This application may no longer respond until reloaded. Reload 🗙